Time;durP1;ratioP1;P1;durP2;ratioP2;P2;SDS_P1;SDS_P2;PMS_P1;PMS_P2;Temp;Humidity;BMP_temperature;BMP_pressure;BME280_temperature;BME280_humidity;BME280_pressure;Samples;Min_cycle;Max_cycle;Signal;HPM_P1;HPM_P2
2022/12/02 00:00:00;;;;;;;6.17;3.30;;;;;;;;;;21059274;28;20232;-67
2022/12/02 00:10:21;;;;;;;4.20;2.73;;;;;;;;;;20918711;22;20233;-69
2022/12/02 00:20:23;;;;;;;5.90;3.40;;;;;;;;;;20875248;28;20214;-69
2022/12/02 00:30:25;;;;;;;6.80;3.67;;;4.90;99.90;;;;;;20875276;28;20198;-69
2022/12/02 00:40:27;;;;;;;8.00;4.10;;;;;;;;;;20874350;28;20279;-69
2022/12/02 00:50:29;;;;;;;5.17;3.10;;;;;;;;;;20857804;28;20263;-69
2022/12/02 01:00:31;;;;;;;7.17;3.70;;;;;;;;;;20873631;28;20209;-69
2022/12/02 01:10:34;;;;;;;5.73;2.97;;;;;;;;;;20889016;28;20234;-69
2022/12/02 01:20:36;;;;;;;5.50;3.40;;;;;;;;;;20855640;28;20201;-69
2022/12/02 01:30:38;;;;;;;6.87;3.43;;;;;;;;;;20854535;28;20214;-69
2022/12/02 01:40:40;;;;;;;8.87;3.17;;;;;;;;;;20854064;28;20550;-69
2022/12/02 01:50:42;;;;;;;5.03;3.07;;;;;;;;;;20870084;28;20218;-69
2022/12/02 02:00:45;;;;;;;5.77;3.50;;;;;;;;;;20852365;28;20266;-69
2022/12/02 02:10:47;;;;;;;4.87;3.00;;;4.90;99.90;;;;;;20851562;28;20229;-69
2022/12/02 02:20:50;;;;;;;6.30;3.87;;;;;;;;;;20868814;28;20210;-69
2022/12/02 02:30:54;;;;;;;7.93;3.77;;;4.70;99.90;;;;;;20867758;28;20257;-69
2022/12/02 02:40:58;;;;;;;5.87;3.40;;;;;;;;;;20852190;28;20259;-69
2022/12/02 02:51:01;;;;;;;5.63;3.53;;;4.80;99.90;;;;;;20864388;28;20272;-69
2022/12/02 03:01:10;;;;;;;7.47;3.40;;;;;;;;;;20850915;28;20206;-69
2022/12/02 03:11:13;;;;;;;6.83;3.17;;;;;;;;;;20882509;28;20596;-69
2022/12/02 03:21:17;;;;;;;5.97;3.20;;;4.80;99.90;;;;;;20881638;28;20217;-69
2022/12/02 03:31:19;;;;;;;4.73;2.77;;;;;;;;;;20831960;28;20672;-69
2022/12/02 03:41:21;;;;;;;5.90;3.07;;;;;;;;;;20880784;28;20610;-69
2022/12/02 03:51:24;;;;;;;6.00;3.23;;;;;;;;;;20879040;28;20238;-69
2022/12/02 04:01:26;;;;;;;7.97;3.40;;;;;;;;;;20877087;28;20225;-69
2022/12/02 04:11:28;;;;;;;6.17;3.57;;;;;;;;;;20857709;28;20221;-69
2022/12/02 04:21:30;;;;;;;6.60;3.50;;;;;;;;;;20858735;28;20276;-69
2022/12/02 04:31:32;;;;;;;8.57;3.53;;;;;;;;;;20859635;28;20222;-69
2022/12/02 04:41:33;;;;;;;5.17;2.43;;;;;;;;;;20858943;28;20684;-69
2022/12/02 04:51:35;;;;;;;6.03;3.13;;;;;;;;;;20858650;28;20704;-69
2022/12/02 05:01:37;;;;;;;7.47;3.17;;;;;;;;;;20859363;28;20289;-69
2022/12/02 05:11:39;;;;;;;6.73;2.90;;;;;;;;;;20856842;28;20631;-69
2022/12/02 05:21:40;;;;;;;4.97;3.10;;;;;;;;;;20853568;28;20256;-69
2022/12/02 05:31:43;;;;;;;4.33;2.80;;;;;;;;;;20887575;28;20217;-69
2022/12/02 05:41:46;;;;;;;5.67;2.90;;;4.60;99.90;;;;;;20887203;28;20275;-69
2022/12/02 05:51:56;;;;;;;4.83;2.77;;;4.60;99.90;;;;;;20855385;28;20696;-69
2022/12/02 06:01:58;;;;;;;8.00;3.13;;;;;;;;;;20871698;28;20206;-69
2022/12/02 06:12:00;;;;;;;7.73;3.37;;;;;;;;;;20920088;23;20288;-68
2022/12/02 06:22:02;;;;;;;7.33;3.37;;;;;;;;;;21069104;28;20539;-68
2022/12/02 06:32:05;;;;;;;6.10;3.47;;;;;;;;;;21081558;28;20216;-69
2022/12/02 06:42:28;;;;;;;6.07;3.57;;;4.50;99.90;;;;;;21125578;28;20548;-69
2022/12/02 06:52:35;;;;;;;5.40;2.87;;;;;;;;;;21162423;28;20551;-69
2022/12/02 07:02:39;;;;;;;6.70;2.90;;;;;;;;;;21164093;28;20296;-69
2022/12/02 07:12:45;;;;;;;5.50;2.87;;;4.60;99.90;;;;;;21145411;28;20778;-68
2022/12/02 07:22:47;;;;;;;8.00;3.97;;;;;;;;;;21159713;28;20257;-69
2022/12/02 07:32:49;;;;;;;5.70;3.10;;;;;;;;;;21054481;28;20265;-69
2022/12/02 07:42:51;;;;;;;6.50;3.07;;;;;;;;;;21075031;28;20796;-69
2022/12/02 07:52:52;;;;;;;5.33;2.70;;;;;;;;;;21060064;28;20220;-69
2022/12/02 08:02:55;;;;;;;5.30;3.27;;;;;;;;;;21073976;28;20238;-69
2022/12/02 08:12:56;;;;;;;5.37;3.13;;;;;;;;;;21055976;28;20763;-68
2022/12/02 08:22:58;;;;;;;6.47;3.00;;;;;;;;;;21073653;28;20221;-68
2022/12/02 08:33:00;;;;;;;7.37;3.90;;;;;;;;;;21073899;28;20285;-68
2022/12/02 08:43:02;;;;;;;6.80;3.47;;;;;;;;;;21072310;28;20204;-69
2022/12/02 08:53:04;;;;;;;6.17;2.93;;;;;;;;;;21071179;28;20313;-69
2022/12/02 09:03:09;;;;;;;6.37;3.00;;;;;;;;;;21071540;28;20200;-68
2022/12/02 09:13:10;;;;;;;5.17;3.40;;;;;;;;;;21070815;28;20900;-69
2022/12/02 09:23:12;;;;;;;4.20;2.83;;;;;;;;;;21069054;28;20216;-69
2022/12/02 09:33:14;;;;;;;6.50;2.93;;;;;;;;;;21068951;28;20752;-69
2022/12/02 09:43:16;;;;;;;4.47;2.70;;;;;;;;;;21066967;28;20762;-66
2022/12/02 09:53:19;;;;;;;4.63;2.90;;;4.60;99.90;;;;;;21066861;28;20706;-69
2022/12/02 10:03:23;;;;;;;5.30;2.40;;;;;;;;;;21066764;28;20624;-69
2022/12/02 10:13:25;;;;;;;4.67;2.50;;;;;;;;;;21051036;28;20690;-69
2022/12/02 10:23:28;;;;;;;4.80;2.87;;;4.30;99.90;;;;;;21059266;28;20643;-68
2022/12/02 10:33:31;;;;;;;4.27;2.53;;;;;;;;;;21063060;28;20706;-68
2022/12/02 10:43:32;;;;;;;4.67;2.43;;;;;;;;;;21056878;28;20270;-69
2022/12/02 10:53:34;;;;;;;5.00;2.27;;;;;;;;;;21063687;28;20220;-69
2022/12/02 11:03:36;;;;;;;3.13;1.83;;;;;;;;;;21064742;28;20200;-69
2022/12/02 11:14:01;;;;;;;5.60;2.93;;;4.40;99.90;;;;;;21075901;28;20700;-69
2022/12/02 11:24:27;;;;;;;4.90;2.63;;;;;;;;;;21077168;28;20212;-68
2022/12/02 11:34:49;;;;;;;3.50;1.83;;;4.50;99.90;;;;;;21076622;28;20229;-68
2022/12/02 11:44:51;;;;;;;3.13;1.97;;;;;;;;;;21077293;28;20204;-69
2022/12/02 11:54:59;;;;;;;3.43;2.03;;;;;;;;;;21070201;28;20232;-69
2022/12/02 12:05:03;;;;;;;3.77;2.10;;;;;;;;;;21044693;28;20213;-68
2022/12/02 12:15:05;;;;;;;4.40;1.13;;;4.40;99.90;;;;;;21068251;28;20637;-69
2022/12/02 12:25:40;;;;;;;2.90;1.50;;;4.40;99.90;;;;;;21091643;22;20220;-68
2022/12/02 12:35:43;;;;;;;3.30;1.50;;;;;;;;;;21022900;28;20287;-68
2022/12/02 12:45:44;;;;;;;2.60;1.40;;;;;;;;;;20978457;28;20864;-68
2022/12/02 12:55:46;;;;;;;2.50;1.33;;;;;;;;;;20978785;28;20269;-68
2022/12/02 13:05:48;;;;;;;3.17;1.67;;;;;;;;;;20974425;28;20205;-68
2022/12/02 13:15:50;;;;;;;3.07;1.73;;;;;;;;;;20978575;28;20306;-69
2022/12/02 13:25:52;;;;;;;2.87;1.67;;;;;;;;;;20982090;28;20297;-68
2022/12/02 13:35:54;;;;;;;3.07;1.50;;;;;;;;;;21014419;28;20269;-68
2022/12/02 13:45:56;;;;;;;1.80;0.77;;;;;;;;;;21060247;28;20224;-70
2022/12/02 13:55:58;;;;;;;2.20;1.27;;;;;;;;;;21056636;28;20216;-67
2022/12/02 14:05:59;;;;;;;1.97;0.97;;;;;;;;;;20974935;28;20306;-69
2022/12/02 14:16:01;;;;;;;1.47;1.03;;;;;;;;;;20972389;28;20233;-68
2022/12/02 14:26:03;;;;;;;1.70;1.00;;;;;;;;;;20969977;28;20238;-68
2022/12/02 14:36:05;;;;;;;2.07;0.90;;;;;;;;;;20972423;28;20236;-69
2022/12/02 14:46:06;;;;;;;1.87;1.03;;;;;;;;;;20963985;28;20632;-68
2022/12/02 14:56:09;;;;;;;2.23;1.27;;;;;;;;;;20909099;28;20264;-68
2022/12/02 15:06:12;;;;;;;2.10;1.53;;;;;;;;;;20888296;28;20198;-69
2022/12/02 15:16:15;;;;;;;1.37;0.83;;;;;;;;;;20901993;28;20287;-68
2022/12/02 15:26:16;;;;;;;3.00;1.43;;;;;;;;;;20912597;28;20445;-68
2022/12/02 15:36:18;;;;;;;2.07;1.40;;;;;;;;;;20977480;28;20244;-68
2022/12/02 15:46:22;;;;;;;2.33;1.47;;;4.20;99.90;;;;;;20988071;28;20310;-68
2022/12/02 15:56:24;;;;;;;2.03;1.13;;;;;;;;;;21002558;28;20275;-68
2022/12/02 16:06:26;;;;;;;2.67;1.37;;;;;;;;;;20984628;28;20221;-68
2022/12/02 16:16:28;;;;;;;1.70;0.90;;;;;;;;;;20977464;28;20209;-68
2022/12/02 16:26:29;;;;;;;2.83;1.57;;;;;;;;;;21005288;28;20216;-68
2022/12/02 16:36:31;;;;;;;2.57;1.47;;;;;;;;;;21019961;28;20776;-68
2022/12/02 16:46:35;;;;;;;2.20;1.53;;;;;;;;;;21065278;28;20220;-68
2022/12/02 16:56:37;;;;;;;2.23;1.77;;;;;;;;;;21036041;28;20761;-68
2022/12/02 17:06:38;;;;;;;4.07;1.77;;;;;;;;;;20973526;28;20236;-67
2022/12/02 17:16:40;;;;;;;3.27;2.07;;;4.20;99.90;;;;;;20982513;28;20213;-68
2022/12/02 17:26:42;;;;;;;4.33;2.60;;;;;;;;;;21031384;28;20212;-68
2022/12/02 17:36:44;;;;;;;5.37;2.37;;;;;;;;;;21066541;28;20232;-68
2022/12/02 17:46:47;;;;;;;3.20;1.87;;;;;;;;;;21044552;28;20603;-68
2022/12/02 17:56:49;;;;;;;3.33;2.00;;;;;;;;;;20995237;28;20354;-68
2022/12/02 18:06:51;;;;;;;3.10;1.70;;;;;;;;;;20978100;28;20220;-68
2022/12/02 18:16:52;;;;;;;2.23;1.43;;;;;;;;;;20963893;28;20225;-69
2022/12/02 18:26:54;;;;;;;3.27;1.60;;;;;;;;;;20992032;28;20244;-70
2022/12/02 18:36:56;;;;;;;2.83;2.17;;;;;;;;;;21099998;22;20308;-64
2022/12/02 18:46:58;;;;;;;2.67;1.73;;;;;;;;;;21113430;28;20216;-64
2022/12/02 18:57:00;;;;;;;2.20;1.30;;;;;;;;;;21113067;28;20281;-64
2022/12/02 19:07:02;;;;;;;2.53;1.43;;;;;;;;;;21136068;28;20207;-64
2022/12/02 19:17:04;;;;;;;2.33;1.40;;;;;;;;;;21125719;28;20284;-65
2022/12/02 19:27:06;;;;;;;1.90;1.27;;;;;;;;;;21115778;28;20200;-65
2022/12/02 19:37:08;;;;;;;2.90;1.37;;;;;;;;;;21119555;28;20231;-65
2022/12/02 19:47:10;;;;;;;2.93;1.83;;;;;;;;;;21119481;28;20237;-64
2022/12/02 19:57:12;;;;;;;2.30;1.50;;;;;;;;;;21121900;28;20312;-65
2022/12/02 20:07:15;;;;;;;4.00;1.80;;;;;;;;;;21122640;28;20216;-65
2022/12/02 20:17:17;;;;;;;2.20;1.50;;;;;;;;;;21136037;28;20715;-64
2022/12/02 20:27:19;;;;;;;2.37;1.40;;;;;;;;;;21071918;28;20204;-65
2022/12/02 20:37:21;;;;;;;2.93;1.60;;;;;;;;;;21085194;28;20232;-64
2022/12/02 20:47:23;;;;;;;3.53;2.10;;;;;;;;;;21103573;28;20232;-64
2022/12/02 20:57:26;;;;;;;2.30;1.43;;;;;;;;;;21119353;28;20244;-66
2022/12/02 21:07:28;;;;;;;2.00;1.17;;;;;;;;;;21097293;28;20232;-66
2022/12/02 21:17:31;;;;;;;2.30;1.37;;;;;;;;;;21135582;28;20231;-66
2022/12/02 21:27:33;;;;;;;3.47;2.13;;;;;;;;;;21101617;28;20261;-66
2022/12/02 21:37:34;;;;;;;2.90;1.80;;;;;;;;;;21100479;28;20211;-65
2022/12/02 21:47:36;;;;;;;2.37;1.67;;;;;;;;;;21100032;28;20610;-64
2022/12/02 21:57:38;;;;;;;2.60;1.57;;;;;;;;;;21090131;28;20220;-65
2022/12/02 22:07:40;;;;;;;3.33;1.83;;;;;;;;;;21114337;28;20216;-65
2022/12/02 22:17:42;;;;;;;4.17;1.60;;;;;;;;;;21090029;28;20718;-65
2022/12/02 22:27:44;;;;;;;3.07;2.03;;;;;;;;;;21098299;28;20227;-65
2022/12/02 22:37:47;;;;;;;3.63;1.93;;;;;;;;;;21130387;28;20705;-65
2022/12/02 22:47:50;;;;;;;2.57;1.30;;;;;;;;;;21116604;28;20216;-65
2022/12/02 22:57:52;;;;;;;6.00;2.20;;;;;;;;;;21116931;28;20285;-65
2022/12/02 23:07:54;;;;;;;4.00;2.57;;;;;;;;;;21129244;28;20269;-64
2022/12/02 23:17:57;;;;;;;3.30;2.30;;;;;;;;;;21131767;28;20236;-65
2022/12/02 23:27:59;;;;;;;2.57;1.67;;;;;;;;;;21130646;28;20280;-65
2022/12/02 23:38:01;;;;;;;2.13;1.07;;;;;;;;;;21113632;28;20576;-65
2022/12/02 23:48:03;;;;;;;1.80;1.20;;;;;;;;;;21130104;28;20211;-65
2022/12/02 23:58:04;;;;;;;6.60;1.90;;;;;;;;;;21129259;28;20215;-65
